createdAt,value
2019-04-11T00:01:12.495Z,97.00
2019-04-11T00:07:16.955Z,97.30
2019-04-11T00:13:24.347Z,97.20
2019-04-11T00:19:23.426Z,97.10
2019-04-11T00:25:28.097Z,97.40
2019-04-11T00:31:32.701Z,97.30
2019-04-11T00:37:35.453Z,97.20
2019-04-11T00:43:41.952Z,96.70
2019-04-11T00:49:43.010Z,96.50
2019-04-11T00:55:46.009Z,96.20
2019-04-11T01:01:51.483Z,95.40
2019-04-11T01:07:55.430Z,94.50
2019-04-11T01:13:59.408Z,93.30
2019-04-11T01:20:02.931Z,90.80
2019-04-11T01:26:08.641Z,91.00
2019-04-11T01:32:13.840Z,91.20
2019-04-11T01:38:16.823Z,91.50
2019-04-11T01:44:20.550Z,92.80
2019-04-11T01:50:25.330Z,92.00
2019-04-11T01:56:29.396Z,92.90
2019-04-11T02:02:47.905Z,93.10
2019-04-11T02:08:59.820Z,93.10
2019-04-11T02:15:04.488Z,93.10
2019-04-11T02:21:06.808Z,93.40
2019-04-11T02:27:14.779Z,93.30
2019-04-11T02:33:18.583Z,93.60
2019-04-11T02:39:22.886Z,93.10
2019-04-11T02:45:39.792Z,91.40
2019-04-11T02:51:31.160Z,91.10
2019-04-11T02:57:36.295Z,90.20
2019-04-11T03:03:42.191Z,87.60
2019-04-11T03:09:48.584Z,86.70
2019-04-11T03:16:07.260Z,86.90
2019-04-11T03:21:57.347Z,86.40
2019-04-11T03:28:09.592Z,86.60
2019-04-11T03:35:02.841Z,87.70
2019-04-11T03:40:36.780Z,86.10
2019-04-11T03:46:43.424Z,86.10
2019-04-11T03:52:30.571Z,86.00
2019-04-11T03:58:39.758Z,85.30
2019-04-11T04:04:46.190Z,84.90
2019-04-11T04:11:08.650Z,84.70
2019-04-11T04:17:30.815Z,83.90
2019-04-11T04:23:37.718Z,84.60
2019-04-11T04:29:41.414Z,83.40
2019-04-11T04:35:44.772Z,83.80
2019-04-11T04:41:58.802Z,83.10
2019-04-11T04:47:58.974Z,82.90
2019-04-11T04:53:58.439Z,83.00
2019-04-11T05:00:03.310Z,83.20
2019-04-11T05:06:10.106Z,83.50
2019-04-11T05:12:13.888Z,83.20
2019-04-11T05:18:20.721Z,82.20
2019-04-11T05:24:23.324Z,82.80
2019-04-11T05:30:27.134Z,82.20
2019-04-11T05:36:32.338Z,81.90
2019-04-11T05:42:35.442Z,82.10
2019-04-11T05:48:41.018Z,81.70
2019-04-11T05:54:49.733Z,81.50
2019-04-11T06:01:01.329Z,81.30
2019-04-11T06:07:11.398Z,80.30
2019-04-11T06:13:24.559Z,79.10
2019-04-11T06:19:33.477Z,80.50
2019-04-11T06:25:41.508Z,80.10
2019-04-11T06:31:59.258Z,78.70
2019-04-11T06:38:20.945Z,78.80
2019-04-11T06:44:28.242Z,78.10
2019-04-11T06:50:35.772Z,77.90
2019-04-11T06:56:41.213Z,77.20
2019-04-11T07:02:46.546Z,76.80
2019-04-11T07:09:10.319Z,75.70
2019-04-11T07:15:20.924Z,76.30
2019-04-11T07:21:25.394Z,74.60
2019-04-11T07:27:29.816Z,74.50
2019-04-11T07:33:54.005Z,73.80
2019-04-11T07:40:15.291Z,73.10
2019-04-11T07:46:22.763Z,74.50
2019-04-11T07:52:30.198Z,72.60
2019-04-11T07:58:33.798Z,72.30
2019-04-11T08:04:38.676Z,69.50
2019-04-11T08:10:51.048Z,69.90
2019-04-11T08:17:11.460Z,70.30
2019-04-11T08:23:16.294Z,69.80
2019-04-11T08:29:20.218Z,68.00
2019-04-11T08:35:36.607Z,68.10
2019-04-11T08:41:41.967Z,67.00
2019-04-11T08:47:49.272Z,66.00
2019-04-11T08:54:09.144Z,64.50
2019-04-11T09:00:31.301Z,63.90
2019-04-11T09:06:34.724Z,61.10
2019-04-11T09:12:41.200Z,60.70
2019-04-11T09:18:44.177Z,61.40
2019-04-11T09:25:05.401Z,60.50
2019-04-11T09:31:27.602Z,61.90
2019-04-11T09:37:30.593Z,63.20
2019-04-11T09:43:35.651Z,63.00
2019-04-11T09:49:39.999Z,64.20
2019-04-11T09:55:44.253Z,62.60
2019-04-11T10:01:56.145Z,62.10
2019-04-11T10:08:09.062Z,62.30
2019-04-11T10:14:15.608Z,60.50
2019-04-11T10:20:20.317Z,61.40
2019-04-11T10:26:25.762Z,59.90
2019-04-11T10:32:32.978Z,60.30
2019-04-11T10:38:37.035Z,61.50
2019-04-11T10:44:42.329Z,60.00
2019-04-11T10:50:47.091Z,61.10
2019-04-11T10:57:09.024Z,62.00
2019-04-11T11:03:20.326Z,61.60
2019-04-11T11:09:39.975Z,60.90
2019-04-11T11:15:44.359Z,57.20
2019-04-11T11:21:49.520Z,58.10
2019-04-11T11:27:52.374Z,58.50
2019-04-11T11:33:56.614Z,58.10
2019-04-11T11:40:07.727Z,58.60
2019-04-11T11:46:29.710Z,59.70
2019-04-11T11:52:49.589Z,58.90
2019-04-11T11:58:58.015Z,57.80
2019-04-11T12:05:02.589Z,58.90
2019-04-11T12:11:08.128Z,55.90
2019-04-11T12:17:29.326Z,56.60
2019-04-11T12:23:58.087Z,57.10
2019-04-11T12:30:13.423Z,58.00
2019-04-11T12:36:18.979Z,57.20
2019-04-11T12:42:25.976Z,57.60
2019-04-11T12:48:34.923Z,57.00
2019-04-11T12:54:43.658Z,56.60
2019-04-11T13:00:54.094Z,56.60
2019-04-11T13:07:15.415Z,56.70
2019-04-11T13:13:36.645Z,56.80
2019-04-11T13:20:04.694Z,56.40
2019-04-11T13:26:07.089Z,54.00
2019-04-11T13:32:28.189Z,55.80
2019-04-11T13:38:35.110Z,55.70
2019-04-11T13:44:38.845Z,55.60
2019-04-11T13:50:41.096Z,55.70
2019-04-11T13:57:01.964Z,57.20
2019-04-11T14:03:16.376Z,56.00
2019-04-11T14:09:30.444Z,57.50
2019-04-11T14:15:30.591Z,55.90
2019-04-11T14:21:33.023Z,55.80
2019-04-11T14:27:35.495Z,56.50
2019-04-11T14:33:42.594Z,56.30
2019-04-11T14:39:47.153Z,56.10
2019-04-11T14:45:53.936Z,57.70
2019-04-11T14:52:07.227Z,58.60
2019-04-11T14:58:27.902Z,58.40
2019-04-11T15:04:50.440Z,58.10
2019-04-11T15:11:04.524Z,57.30
2019-04-11T15:17:08.923Z,58.90
2019-04-11T15:23:13.354Z,58.90
2019-04-11T15:29:19.324Z,59.00
2019-04-11T15:35:22.036Z,60.20
2019-04-11T15:41:26.079Z,59.80
2019-04-11T15:47:29.960Z,60.10
2019-04-11T15:53:46.692Z,59.70
2019-04-11T15:59:57.314Z,60.00
2019-04-11T16:06:04.252Z,61.80
2019-04-11T16:12:08.885Z,61.50
2019-04-11T16:18:22.349Z,62.00
2019-04-11T16:24:27.634Z,60.80
2019-04-11T16:30:39.549Z,61.80
2019-04-11T16:36:46.744Z,61.70
2019-04-11T16:42:53.608Z,61.90
2019-04-11T16:48:55.902Z,61.90
2019-04-11T16:54:59.295Z,62.60
2019-04-11T17:01:06.570Z,61.90
2019-04-11T17:07:11.087Z,62.10
2019-04-11T17:13:13.761Z,62.80
2019-04-11T17:19:16.447Z,63.30
2019-04-11T17:25:19.822Z,62.80
2019-04-11T17:31:25.691Z,63.60
2019-04-11T17:37:27.149Z,64.90
2019-04-11T17:43:29.489Z,67.60
2019-04-11T17:49:31.822Z,69.80
2019-04-11T17:55:34.596Z,70.10
2019-04-11T18:01:38.010Z,72.00
2019-04-11T18:07:42.346Z,72.60
2019-04-11T18:13:44.803Z,72.80
2019-04-11T18:19:47.879Z,72.30
2019-04-11T18:25:53.883Z,72.80
2019-04-11T18:31:56.329Z,73.30
2019-04-11T18:38:06.945Z,74.40
2019-04-11T18:44:09.842Z,74.80
2019-04-11T18:50:15.363Z,74.80
2019-04-11T18:56:18.276Z,74.90
2019-04-11T19:02:21.997Z,75.30
2019-04-11T19:08:34.205Z,76.80
2019-04-11T19:14:37.173Z,76.80
2019-04-11T19:20:40.338Z,76.20
2019-04-11T19:26:46.033Z,76.30
2019-04-11T19:32:47.712Z,74.50
2019-04-11T19:38:53.521Z,67.60
2019-04-11T19:44:56.199Z,66.00
2019-04-11T19:50:59.538Z,64.20
2019-04-11T19:57:07.477Z,63.40
2019-04-11T20:03:12.960Z,62.70
2019-04-11T20:09:16.552Z,62.70
2019-04-11T20:15:19.731Z,62.50
2019-04-11T20:21:22.307Z,62.40
2019-04-11T20:27:29.470Z,62.30
2019-04-11T20:33:34.702Z,62.10
2019-04-11T20:39:37.144Z,62.60
2019-04-11T20:45:43.411Z,62.60
2019-04-11T20:51:47.677Z,62.60
2019-04-11T20:57:51.338Z,62.30
2019-04-11T21:03:55.140Z,62.60
2019-04-11T21:09:57.908Z,61.10
2019-04-11T21:16:00.322Z,61.40
2019-04-11T21:22:04.284Z,62.90
2019-04-11T21:28:07.262Z,62.80
2019-04-11T21:34:09.814Z,63.00
2019-04-11T21:40:12.423Z,61.70
2019-04-11T21:46:14.742Z,61.00
2019-04-11T21:52:17.031Z,60.70
2019-04-11T21:58:20.354Z,60.00
2019-04-11T22:04:27.117Z,59.20
2019-04-11T22:10:29.079Z,59.90
2019-04-11T22:16:33.081Z,60.00
2019-04-11T22:22:35.299Z,60.50
2019-04-11T22:28:37.603Z,60.90
2019-04-11T22:34:44.925Z,61.10
2019-04-11T22:40:47.286Z,61.10
2019-04-11T22:46:49.867Z,60.70
2019-04-11T22:52:52.238Z,61.50
2019-04-11T22:58:54.572Z,61.70
2019-04-11T23:04:57.490Z,61.90
2019-04-11T23:10:59.682Z,63.20
2019-04-11T23:17:02.302Z,62.70
2019-04-11T23:23:04.568Z,62.70
2019-04-11T23:29:06.962Z,62.30
2019-04-11T23:35:09.341Z,60.70
2019-04-11T23:41:11.581Z,61.00
2019-04-11T23:47:14.427Z,61.30
2019-04-11T23:53:16.676Z,62.60
2019-04-11T23:59:18.914Z,63.60
